sensor_id;sensor_type;location;lat;lon;timestamp;P1;durP1;ratioP1;P2;durP2;ratioP2
3083;SDS011;1552;51.952;7.618;2023-04-01T00:01:15;5.97;;;1.53;;
3083;SDS011;1552;51.952;7.618;2023-04-01T00:03:41;6.10;;;2.20;;
3083;SDS011;1552;51.952;7.618;2023-04-01T00:06:09;6.60;;;1.90;;
3083;SDS011;1552;51.952;7.618;2023-04-01T00:08:35;4.93;;;1.70;;
3083;SDS011;1552;51.952;7.618;2023-04-01T00:11:01;7.83;;;2.00;;
3083;SDS011;1552;51.952;7.618;2023-04-01T00:13:28;7.70;;;2.77;;
3083;SDS011;1552;51.952;7.618;2023-04-01T00:15:54;5.20;;;1.90;;
3083;SDS011;1552;51.952;7.618;2023-04-01T00:18:22;7.47;;;1.97;;
3083;SDS011;1552;51.952;7.618;2023-04-01T00:20:49;3.40;;;1.50;;
3083;SDS011;1552;51.952;7.618;2023-04-01T00:23:16;3.40;;;1.70;;
3083;SDS011;1552;51.952;7.618;2023-04-01T00:25:43;4.87;;;1.70;;
3083;SDS011;1552;51.952;7.618;2023-04-01T00:28:10;3.47;;;1.57;;
3083;SDS011;1552;51.952;7.618;2023-04-01T00:30:36;4.40;;;2.00;;
3083;SDS011;1552;51.952;7.618;2023-04-01T00:33:03;3.17;;;1.60;;
3083;SDS011;1552;51.952;7.618;2023-04-01T00:35:31;5.87;;;2.13;;
3083;SDS011;1552;51.952;7.618;2023-04-01T00:37:57;2.87;;;2.00;;
3083;SDS011;1552;51.952;7.618;2023-04-01T00:40:25;4.87;;;1.83;;
3083;SDS011;1552;51.952;7.618;2023-04-01T00:42:52;9.17;;;2.73;;
3083;SDS011;1552;51.952;7.618;2023-04-01T00:45:23;3.10;;;2.43;;
3083;SDS011;1552;51.952;7.618;2023-04-01T00:47:51;5.53;;;1.77;;
3083;SDS011;1552;51.952;7.618;2023-04-01T00:50:18;6.53;;;2.10;;
3083;SDS011;1552;51.952;7.618;2023-04-01T00:52:46;3.27;;;2.23;;
3083;SDS011;1552;51.952;7.618;2023-04-01T00:55:12;5.93;;;2.63;;
3083;SDS011;1552;51.952;7.618;2023-04-01T00:57:40;8.33;;;2.53;;
3083;SDS011;1552;51.952;7.618;2023-04-01T01:00:10;4.20;;;2.30;;
3083;SDS011;1552;51.952;7.618;2023-04-01T01:02:38;4.10;;;2.10;;
3083;SDS011;1552;51.952;7.618;2023-04-01T01:05:07;4.97;;;2.30;;
3083;SDS011;1552;51.952;7.618;2023-04-01T01:07:35;4.77;;;2.03;;
3083;SDS011;1552;51.952;7.618;2023-04-01T01:10:06;4.80;;;2.17;;
3083;SDS011;1552;51.952;7.618;2023-04-01T01:12:34;7.13;;;2.20;;
3083;SDS011;1552;51.952;7.618;2023-04-01T01:15:06;4.13;;;2.23;;
3083;SDS011;1552;51.952;7.618;2023-04-01T01:17:36;4.67;;;2.73;;
3083;SDS011;1552;51.952;7.618;2023-04-01T01:20:31;5.07;;;2.40;;
3083;SDS011;1552;51.952;7.618;2023-04-01T01:23:10;5.57;;;2.20;;
3083;SDS011;1552;51.952;7.618;2023-04-01T01:25:43;6.27;;;2.70;;
3083;SDS011;1552;51.952;7.618;2023-04-01T01:28:17;4.63;;;2.23;;
3083;SDS011;1552;51.952;7.618;2023-04-01T01:30:49;2.90;;;2.60;;
3083;SDS011;1552;51.952;7.618;2023-04-01T01:33:35;3.83;;;2.20;;
3083;SDS011;1552;51.952;7.618;2023-04-01T01:36:05;7.60;;;2.57;;
3083;SDS011;1552;51.952;7.618;2023-04-01T01:38:33;3.33;;;2.40;;
3083;SDS011;1552;51.952;7.618;2023-04-01T01:41:01;4.70;;;2.87;;
3083;SDS011;1552;51.952;7.618;2023-04-01T01:43:29;3.83;;;3.27;;
3083;SDS011;1552;51.952;7.618;2023-04-01T01:45:57;5.83;;;2.70;;
3083;SDS011;1552;51.952;7.618;2023-04-01T01:48:24;7.00;;;2.50;;
3083;SDS011;1552;51.952;7.618;2023-04-01T01:50:51;5.80;;;2.53;;
3083;SDS011;1552;51.952;7.618;2023-04-01T01:53:20;6.13;;;2.60;;
3083;SDS011;1552;51.952;7.618;2023-04-01T01:55:47;3.87;;;2.40;;
3083;SDS011;1552;51.952;7.618;2023-04-01T01:58:14;4.57;;;2.70;;
3083;SDS011;1552;51.952;7.618;2023-04-01T02:00:43;5.80;;;3.03;;
3083;SDS011;1552;51.952;7.618;2023-04-01T02:03:10;8.17;;;4.77;;
3083;SDS011;1552;51.952;7.618;2023-04-01T02:05:36;5.77;;;3.00;;
3083;SDS011;1552;51.952;7.618;2023-04-01T02:08:05;3.97;;;2.60;;
3083;SDS011;1552;51.952;7.618;2023-04-01T02:10:34;4.30;;;2.53;;
3083;SDS011;1552;51.952;7.618;2023-04-01T02:13:02;3.70;;;2.60;;
3083;SDS011;1552;51.952;7.618;2023-04-01T02:15:30;3.60;;;2.40;;
3083;SDS011;1552;51.952;7.618;2023-04-01T02:17:58;4.10;;;2.70;;
3083;SDS011;1552;51.952;7.618;2023-04-01T02:20:25;4.07;;;2.60;;
3083;SDS011;1552;51.952;7.618;2023-04-01T02:22:53;4.50;;;2.53;;
3083;SDS011;1552;51.952;7.618;2023-04-01T02:25:22;4.80;;;2.47;;
3083;SDS011;1552;51.952;7.618;2023-04-01T02:27:50;6.23;;;2.60;;
3083;SDS011;1552;51.952;7.618;2023-04-01T02:30:17;5.13;;;2.50;;
3083;SDS011;1552;51.952;7.618;2023-04-01T02:32:44;3.03;;;2.10;;
3083;SDS011;1552;51.952;7.618;2023-04-01T02:35:12;2.90;;;2.00;;
3083;SDS011;1552;51.952;7.618;2023-04-01T02:37:40;2.57;;;1.87;;
3083;SDS011;1552;51.952;7.618;2023-04-01T02:40:08;3.13;;;2.40;;
3083;SDS011;1552;51.952;7.618;2023-04-01T02:42:34;5.70;;;2.30;;
3083;SDS011;1552;51.952;7.618;2023-04-01T02:45:02;6.13;;;2.63;;
3083;SDS011;1552;51.952;7.618;2023-04-01T02:47:28;4.40;;;3.10;;
3083;SDS011;1552;51.952;7.618;2023-04-01T02:49:55;3.60;;;2.40;;
3083;SDS011;1552;51.952;7.618;2023-04-01T02:52:23;4.03;;;2.20;;
3083;SDS011;1552;51.952;7.618;2023-04-01T02:54:49;4.57;;;2.07;;
3083;SDS011;1552;51.952;7.618;2023-04-01T02:57:16;6.13;;;2.37;;
3083;SDS011;1552;51.952;7.618;2023-04-01T02:59:42;2.67;;;2.27;;
3083;SDS011;1552;51.952;7.618;2023-04-01T03:02:10;3.27;;;2.63;;
3083;SDS011;1552;51.952;7.618;2023-04-01T03:04:36;3.20;;;2.50;;
3083;SDS011;1552;51.952;7.618;2023-04-01T03:07:02;4.90;;;2.47;;
3083;SDS011;1552;51.952;7.618;2023-04-01T03:09:29;6.10;;;2.40;;
3083;SDS011;1552;51.952;7.618;2023-04-01T03:11:55;4.07;;;2.50;;
3083;SDS011;1552;51.952;7.618;2023-04-01T03:14:21;3.37;;;2.50;;
3083;SDS011;1552;51.952;7.618;2023-04-01T03:16:48;3.53;;;2.20;;
3083;SDS011;1552;51.952;7.618;2023-04-01T03:19:15;4.23;;;2.17;;
3083;SDS011;1552;51.952;7.618;2023-04-01T03:21:42;2.73;;;2.27;;
3083;SDS011;1552;51.952;7.618;2023-04-01T03:24:08;2.60;;;2.37;;
3083;SDS011;1552;51.952;7.618;2023-04-01T03:26:34;3.47;;;2.10;;
3083;SDS011;1552;51.952;7.618;2023-04-01T03:29:01;2.33;;;2.13;;
3083;SDS011;1552;51.952;7.618;2023-04-01T03:31:27;2.33;;;2.10;;
3083;SDS011;1552;51.952;7.618;2023-04-01T03:33:53;2.80;;;2.50;;
3083;SDS011;1552;51.952;7.618;2023-04-01T03:36:21;2.70;;;2.50;;
3083;SDS011;1552;51.952;7.618;2023-04-01T03:38:47;3.23;;;2.50;;
3083;SDS011;1552;51.952;7.618;2023-04-01T03:41:14;2.73;;;2.53;;
3083;SDS011;1552;51.952;7.618;2023-04-01T03:43:41;3.10;;;2.80;;
3083;SDS011;1552;51.952;7.618;2023-04-01T03:46:07;4.03;;;2.43;;
3083;SDS011;1552;51.952;7.618;2023-04-01T03:48:34;3.23;;;2.50;;
3083;SDS011;1552;51.952;7.618;2023-04-01T03:51:00;3.27;;;2.80;;
3083;SDS011;1552;51.952;7.618;2023-04-01T03:53:28;4.00;;;2.80;;
3083;SDS011;1552;51.952;7.618;2023-04-01T03:55:54;4.33;;;3.37;;
3083;SDS011;1552;51.952;7.618;2023-04-01T03:58:20;3.67;;;3.10;;
3083;SDS011;1552;51.952;7.618;2023-04-01T04:00:47;4.33;;;3.03;;
3083;SDS011;1552;51.952;7.618;2023-04-01T04:03:13;5.67;;;4.17;;
3083;SDS011;1552;51.952;7.618;2023-04-01T04:05:45;4.13;;;2.93;;
3083;SDS011;1552;51.952;7.618;2023-04-01T04:08:11;4.30;;;3.13;;
3083;SDS011;1552;51.952;7.618;2023-04-01T04:10:39;4.60;;;4.10;;
3083;SDS011;1552;51.952;7.618;2023-04-01T04:13:06;3.93;;;3.30;;
3083;SDS011;1552;51.952;7.618;2023-04-01T04:15:32;4.60;;;3.13;;
3083;SDS011;1552;51.952;7.618;2023-04-01T04:17:58;6.30;;;3.20;;
3083;SDS011;1552;51.952;7.618;2023-04-01T04:20:25;4.13;;;3.60;;
3083;SDS011;1552;51.952;7.618;2023-04-01T04:22:51;3.80;;;3.03;;
3083;SDS011;1552;51.952;7.618;2023-04-01T04:25:17;4.20;;;3.30;;
3083;SDS011;1552;51.952;7.618;2023-04-01T04:27:45;4.93;;;3.60;;
3083;SDS011;1552;51.952;7.618;2023-04-01T04:30:11;8.83;;;4.00;;
3083;SDS011;1552;51.952;7.618;2023-04-01T04:32:38;4.40;;;3.70;;
3083;SDS011;1552;51.952;7.618;2023-04-01T04:35:05;4.83;;;3.73;;
3083;SDS011;1552;51.952;7.618;2023-04-01T04:37:32;5.17;;;3.57;;
3083;SDS011;1552;51.952;7.618;2023-04-01T04:39:58;5.93;;;3.87;;
3083;SDS011;1552;51.952;7.618;2023-04-01T04:42:24;5.83;;;3.40;;
3083;SDS011;1552;51.952;7.618;2023-04-01T04:44:52;5.00;;;3.43;;
3083;SDS011;1552;51.952;7.618;2023-04-01T04:47:18;5.60;;;4.00;;
3083;SDS011;1552;51.952;7.618;2023-04-01T04:49:45;4.97;;;3.50;;
3083;SDS011;1552;51.952;7.618;2023-04-01T04:52:11;4.23;;;3.53;;
3083;SDS011;1552;51.952;7.618;2023-04-01T04:54:37;3.83;;;3.37;;
3083;SDS011;1552;51.952;7.618;2023-04-01T04:57:04;5.93;;;3.40;;
3083;SDS011;1552;51.952;7.618;2023-04-01T04:59:30;3.37;;;2.80;;
3083;SDS011;1552;51.952;7.618;2023-04-01T05:01:58;4.40;;;3.07;;
3083;SDS011;1552;51.952;7.618;2023-04-01T05:04:24;6.30;;;3.37;;
3083;SDS011;1552;51.952;7.618;2023-04-01T05:06:50;4.57;;;2.87;;
3083;SDS011;1552;51.952;7.618;2023-04-01T05:09:17;3.30;;;2.80;;
3083;SDS011;1552;51.952;7.618;2023-04-01T05:11:43;3.27;;;2.60;;
3083;SDS011;1552;51.952;7.618;2023-04-01T05:14:11;3.73;;;2.60;;
3083;SDS011;1552;51.952;7.618;2023-04-01T05:16:38;3.83;;;2.67;;
3083;SDS011;1552;51.952;7.618;2023-04-01T05:19:05;4.13;;;2.63;;
3083;SDS011;1552;51.952;7.618;2023-04-01T05:21:32;3.10;;;2.73;;
3083;SDS011;1552;51.952;7.618;2023-04-01T05:23:58;4.30;;;2.90;;
3083;SDS011;1552;51.952;7.618;2023-04-01T05:26:24;4.50;;;3.13;;
3083;SDS011;1552;51.952;7.618;2023-04-01T05:28:51;7.03;;;2.90;;
3083;SDS011;1552;51.952;7.618;2023-04-01T05:31:17;3.50;;;3.20;;
3083;SDS011;1552;51.952;7.618;2023-04-01T05:33:43;3.73;;;2.73;;
3083;SDS011;1552;51.952;7.618;2023-04-01T05:36:14;4.60;;;3.20;;
3083;SDS011;1552;51.952;7.618;2023-04-01T05:38:41;5.13;;;3.37;;
3083;SDS011;1552;51.952;7.618;2023-04-01T05:41:08;4.53;;;3.20;;
3083;SDS011;1552;51.952;7.618;2023-04-01T05:43:35;5.80;;;3.50;;
3083;SDS011;1552;51.952;7.618;2023-04-01T05:46:01;5.00;;;3.73;;
3083;SDS011;1552;51.952;7.618;2023-04-01T05:48:28;4.03;;;3.30;;
3083;SDS011;1552;51.952;7.618;2023-04-01T05:50:54;5.63;;;4.27;;
3083;SDS011;1552;51.952;7.618;2023-04-01T05:53:22;5.60;;;4.53;;
3083;SDS011;1552;51.952;7.618;2023-04-01T05:55:48;5.33;;;4.63;;
3083;SDS011;1552;51.952;7.618;2023-04-01T05:58:14;5.87;;;4.20;;
3083;SDS011;1552;51.952;7.618;2023-04-01T06:00:41;7.10;;;5.40;;
3083;SDS011;1552;51.952;7.618;2023-04-01T06:03:07;7.83;;;5.43;;
3083;SDS011;1552;51.952;7.618;2023-04-01T06:05:37;7.93;;;5.60;;
3083;SDS011;1552;51.952;7.618;2023-04-01T06:08:05;6.50;;;5.60;;
3083;SDS011;1552;51.952;7.618;2023-04-01T06:10:38;5.80;;;5.13;;
3083;SDS011;1552;51.952;7.618;2023-04-01T06:13:07;8.37;;;6.30;;
3083;SDS011;1552;51.952;7.618;2023-04-01T06:15:38;7.10;;;6.10;;
3083;SDS011;1552;51.952;7.618;2023-04-01T06:20:49;7.37;;;6.47;;
3083;SDS011;1552;51.952;7.618;2023-04-01T06:23:30;7.50;;;6.70;;
3083;SDS011;1552;51.952;7.618;2023-04-01T06:26:04;8.37;;;6.43;;
3083;SDS011;1552;51.952;7.618;2023-04-01T06:28:56;9.53;;;6.67;;
3083;SDS011;1552;51.952;7.618;2023-04-01T06:31:33;7.63;;;6.53;;
3083;SDS011;1552;51.952;7.618;2023-04-01T06:34:05;7.73;;;6.80;;
3083;SDS011;1552;51.952;7.618;2023-04-01T06:36:45;11.70;;;7.53;;
3083;SDS011;1552;51.952;7.618;2023-04-01T06:39:18;9.40;;;7.50;;
3083;SDS011;1552;51.952;7.618;2023-04-01T06:44:37;9.33;;;7.93;;
3083;SDS011;1552;51.952;7.618;2023-04-01T06:47:12;10.07;;;7.53;;
3083;SDS011;1552;51.952;7.618;2023-04-01T06:49:44;8.30;;;6.83;;
3083;SDS011;1552;51.952;7.618;2023-04-01T06:52:16;10.17;;;7.57;;
3083;SDS011;1552;51.952;7.618;2023-04-01T06:54:47;9.90;;;7.57;;
3083;SDS011;1552;51.952;7.618;2023-04-01T06:57:18;9.50;;;7.37;;
3083;SDS011;1552;51.952;7.618;2023-04-01T06:59:47;8.37;;;6.77;;
3083;SDS011;1552;51.952;7.618;2023-04-01T07:02:16;8.07;;;6.30;;
3083;SDS011;1552;51.952;7.618;2023-04-01T07:04:46;8.43;;;6.10;;
3083;SDS011;1552;51.952;7.618;2023-04-01T07:07:14;8.67;;;5.93;;
3083;SDS011;1552;51.952;7.618;2023-04-01T07:09:43;11.20;;;6.07;;
3083;SDS011;1552;51.952;7.618;2023-04-01T07:12:15;7.47;;;6.23;;
3083;SDS011;1552;51.952;7.618;2023-04-01T07:14:44;6.87;;;5.90;;
3083;SDS011;1552;51.952;7.618;2023-04-01T07:17:16;8.50;;;6.40;;
3083;SDS011;1552;51.952;7.618;2023-04-01T07:19:44;6.20;;;5.47;;
3083;SDS011;1552;51.952;7.618;2023-04-01T07:22:14;6.47;;;5.40;;
3083;SDS011;1552;51.952;7.618;2023-04-01T07:24:46;8.00;;;5.97;;
3083;SDS011;1552;51.952;7.618;2023-04-01T07:27:13;5.23;;;4.73;;
3083;SDS011;1552;51.952;7.618;2023-04-01T07:29:40;5.47;;;4.67;;
3083;SDS011;1552;51.952;7.618;2023-04-01T07:32:23;5.33;;;4.50;;
3083;SDS011;1552;51.952;7.618;2023-04-01T07:35:03;4.50;;;4.10;;
3083;SDS011;1552;51.952;7.618;2023-04-01T07:37:31;5.17;;;4.50;;
3083;SDS011;1552;51.952;7.618;2023-04-01T07:40:05;5.40;;;4.50;;
3083;SDS011;1552;51.952;7.618;2023-04-01T07:42:39;4.50;;;4.10;;
3083;SDS011;1552;51.952;7.618;2023-04-01T07:45:08;6.67;;;4.50;;
3083;SDS011;1552;51.952;7.618;2023-04-01T07:47:43;5.10;;;4.70;;
3083;SDS011;1552;51.952;7.618;2023-04-01T07:50:13;5.30;;;4.80;;
3083;SDS011;1552;51.952;7.618;2023-04-01T07:52:44;4.97;;;4.57;;
3083;SDS011;1552;51.952;7.618;2023-04-01T07:55:14;5.23;;;4.73;;
3083;SDS011;1552;51.952;7.618;2023-04-01T07:57:43;4.20;;;3.80;;
3083;SDS011;1552;51.952;7.618;2023-04-01T08:00:15;4.53;;;3.80;;
3083;SDS011;1552;51.952;7.618;2023-04-01T08:02:48;4.97;;;4.00;;
3083;SDS011;1552;51.952;7.618;2023-04-01T08:05:19;5.00;;;4.17;;
3083;SDS011;1552;51.952;7.618;2023-04-01T08:07:49;4.70;;;4.17;;
3083;SDS011;1552;51.952;7.618;2023-04-01T08:10:20;6.53;;;4.80;;
3083;SDS011;1552;51.952;7.618;2023-04-01T08:12:48;4.97;;;4.37;;
3083;SDS011;1552;51.952;7.618;2023-04-01T08:15:18;4.73;;;4.23;;
3083;SDS011;1552;51.952;7.618;2023-04-01T08:17:52;5.23;;;4.73;;
3083;SDS011;1552;51.952;7.618;2023-04-01T08:20:26;4.47;;;4.07;;
3083;SDS011;1552;51.952;7.618;2023-04-01T08:22:55;4.67;;;4.23;;
3083;SDS011;1552;51.952;7.618;2023-04-01T08:25:24;5.50;;;4.23;;
3083;SDS011;1552;51.952;7.618;2023-04-01T08:27:51;5.50;;;4.73;;
3083;SDS011;1552;51.952;7.618;2023-04-01T08:30:20;4.87;;;4.37;;
3083;SDS011;1552;51.952;7.618;2023-04-01T08:32:47;6.00;;;4.87;;
3083;SDS011;1552;51.952;7.618;2023-04-01T08:35:17;5.37;;;4.87;;
3083;SDS011;1552;51.952;7.618;2023-04-01T08:37:45;5.63;;;5.03;;
3083;SDS011;1552;51.952;7.618;2023-04-01T08:40:22;5.07;;;4.00;;
3083;SDS011;1552;51.952;7.618;2023-04-01T08:42:55;3.83;;;3.53;;
3083;SDS011;1552;51.952;7.618;2023-04-01T08:45:26;5.97;;;4.60;;
3083;SDS011;1552;51.952;7.618;2023-04-01T08:48:01;4.23;;;3.83;;
3083;SDS011;1552;51.952;7.618;2023-04-01T08:50:49;4.43;;;4.03;;
3083;SDS011;1552;51.952;7.618;2023-04-01T08:53:19;4.97;;;4.07;;
3083;SDS011;1552;51.952;7.618;2023-04-01T08:55:51;4.37;;;3.97;;
3083;SDS011;1552;51.952;7.618;2023-04-01T08:58:25;4.23;;;3.83;;
3083;SDS011;1552;51.952;7.618;2023-04-01T09:01:02;4.13;;;3.80;;
3083;SDS011;1552;51.952;7.618;2023-04-01T09:03:37;4.83;;;4.33;;
3083;SDS011;1552;51.952;7.618;2023-04-01T09:09:02;4.20;;;3.77;;
3083;SDS011;1552;51.952;7.618;2023-04-01T09:11:38;4.10;;;3.80;;
3083;SDS011;1552;51.952;7.618;2023-04-01T09:17:12;4.77;;;4.37;;
3083;SDS011;1552;51.952;7.618;2023-04-01T09:19:47;4.53;;;4.13;;
3083;SDS011;1552;51.952;7.618;2023-04-01T09:22:22;4.50;;;4.10;;
3083;SDS011;1552;51.952;7.618;2023-04-01T09:25:17;5.33;;;4.43;;
3083;SDS011;1552;51.952;7.618;2023-04-01T09:27:51;5.03;;;4.53;;
3083;SDS011;1552;51.952;7.618;2023-04-01T09:33:11;6.27;;;5.10;;
3083;SDS011;1552;51.952;7.618;2023-04-01T09:35:45;4.73;;;4.27;;
3083;SDS011;1552;51.952;7.618;2023-04-01T09:38:18;5.53;;;4.90;;
3083;SDS011;1552;51.952;7.618;2023-04-01T09:40:48;4.57;;;4.17;;
3083;SDS011;1552;51.952;7.618;2023-04-01T09:43:25;5.43;;;4.70;;
3083;SDS011;1552;51.952;7.618;2023-04-01T09:46:07;4.60;;;4.13;;
3083;SDS011;1552;51.952;7.618;2023-04-01T09:48:39;4.43;;;4.03;;
3083;SDS011;1552;51.952;7.618;2023-04-01T09:51:13;4.93;;;4.43;;
3083;SDS011;1552;51.952;7.618;2023-04-01T09:53:46;5.00;;;4.60;;
3083;SDS011;1552;51.952;7.618;2023-04-01T09:56:27;5.10;;;4.17;;
3083;SDS011;1552;51.952;7.618;2023-04-01T10:07:18;3.90;;;3.60;;
3083;SDS011;1552;51.952;7.618;2023-04-01T10:09:58;4.77;;;3.77;;
3083;SDS011;1552;51.952;7.618;2023-04-01T10:12:34;4.00;;;3.70;;
3083;SDS011;1552;51.952;7.618;2023-04-01T10:15:27;3.60;;;3.30;;
3083;SDS011;1552;51.952;7.618;2023-04-01T10:18:06;3.73;;;3.30;;
3083;SDS011;1552;51.952;7.618;2023-04-01T10:20:55;3.83;;;3.40;;
3083;SDS011;1552;51.952;7.618;2023-04-01T10:23:39;3.80;;;3.50;;
3083;SDS011;1552;51.952;7.618;2023-04-01T10:26:24;3.60;;;3.30;;
3083;SDS011;1552;51.952;7.618;2023-04-01T10:28:56;3.40;;;3.10;;
3083;SDS011;1552;51.952;7.618;2023-04-01T10:31:32;4.20;;;3.40;;
3083;SDS011;1552;51.952;7.618;2023-04-01T10:36:50;4.07;;;3.77;;
3083;SDS011;1552;51.952;7.618;2023-04-01T10:42:09;4.13;;;3.73;;
3083;SDS011;1552;51.952;7.618;2023-04-01T10:44:58;5.07;;;4.53;;
3083;SDS011;1552;51.952;7.618;2023-04-01T10:50:24;3.80;;;3.40;;
3083;SDS011;1552;51.952;7.618;2023-04-01T10:52:56;3.60;;;3.30;;
3083;SDS011;1552;51.952;7.618;2023-04-01T10:55:52;4.27;;;3.87;;
3083;SDS011;1552;51.952;7.618;2023-04-01T11:01:33;3.80;;;3.50;;
3083;SDS011;1552;51.952;7.618;2023-04-01T11:07:01;3.77;;;3.47;;
3083;SDS011;1552;51.952;7.618;2023-04-01T11:09:47;3.50;;;3.20;;
3083;SDS011;1552;51.952;7.618;2023-04-01T11:12:23;3.80;;;3.50;;
3083;SDS011;1552;51.952;7.618;2023-04-01T11:17:57;2.90;;;2.70;;
3083;SDS011;1552;51.952;7.618;2023-04-01T11:20:52;3.03;;;2.73;;
3083;SDS011;1552;51.952;7.618;2023-04-01T11:23:34;5.97;;;4.03;;
3083;SDS011;1552;51.952;7.618;2023-04-01T11:26:14;3.53;;;3.23;;
3083;SDS011;1552;51.952;7.618;2023-04-01T11:28:55;2.50;;;2.30;;
3083;SDS011;1552;51.952;7.618;2023-04-01T11:31:29;2.10;;;2.00;;
3083;SDS011;1552;51.952;7.618;2023-04-01T11:34:02;2.17;;;1.97;;
3083;SDS011;1552;51.952;7.618;2023-04-01T11:36:34;3.17;;;2.43;;
3083;SDS011;1552;51.952;7.618;2023-04-01T11:39:11;2.60;;;2.40;;
3083;SDS011;1552;51.952;7.618;2023-04-01T11:41:40;2.83;;;2.60;;
3083;SDS011;1552;51.952;7.618;2023-04-01T11:44:12;4.63;;;2.67;;
3083;SDS011;1552;51.952;7.618;2023-04-01T11:46:43;2.20;;;2.00;;
3083;SDS011;1552;51.952;7.618;2023-04-01T11:49:20;1.87;;;1.77;;
3083;SDS011;1552;51.952;7.618;2023-04-01T11:51:55;2.00;;;1.90;;
3083;SDS011;1552;51.952;7.618;2023-04-01T11:54:35;2.00;;;1.90;;
3083;SDS011;1552;51.952;7.618;2023-04-01T11:57:09;2.40;;;2.20;;
3083;SDS011;1552;51.952;7.618;2023-04-01T11:59:51;2.10;;;2.00;;
3083;SDS011;1552;51.952;7.618;2023-04-01T12:02:24;2.43;;;2.20;;
3083;SDS011;1552;51.952;7.618;2023-04-01T12:04:59;3.13;;;2.70;;
3083;SDS011;1552;51.952;7.618;2023-04-01T12:07:32;2.93;;;2.70;;
3083;SDS011;1552;51.952;7.618;2023-04-01T12:10:02;1.70;;;1.60;;
3083;SDS011;1552;51.952;7.618;2023-04-01T12:12:32;1.70;;;1.60;;
3083;SDS011;1552;51.952;7.618;2023-04-01T12:15:05;1.50;;;1.40;;
3083;SDS011;1552;51.952;7.618;2023-04-01T12:17:39;1.17;;;1.17;;
3083;SDS011;1552;51.952;7.618;2023-04-01T12:20:16;1.87;;;1.67;;
3083;SDS011;1552;51.952;7.618;2023-04-01T12:22:49;2.63;;;1.80;;
3083;SDS011;1552;51.952;7.618;2023-04-01T12:25:21;1.87;;;1.67;;
3083;SDS011;1552;51.952;7.618;2023-04-01T12:27:53;2.20;;;2.00;;
3083;SDS011;1552;51.952;7.618;2023-04-01T12:30:34;1.83;;;1.60;;
3083;SDS011;1552;51.952;7.618;2023-04-01T12:33:14;2.23;;;1.70;;
3083;SDS011;1552;51.952;7.618;2023-04-01T12:35:48;2.77;;;1.77;;
3083;SDS011;1552;51.952;7.618;2023-04-01T12:38:22;1.83;;;1.73;;
3083;SDS011;1552;51.952;7.618;2023-04-01T12:40:55;2.63;;;1.17;;
3083;SDS011;1552;51.952;7.618;2023-04-01T12:43:28;0.93;;;0.93;;
3083;SDS011;1552;51.952;7.618;2023-04-01T12:46:02;2.70;;;1.13;;
3083;SDS011;1552;51.952;7.618;2023-04-01T12:51:29;2.63;;;2.13;;
3083;SDS011;1552;51.952;7.618;2023-04-01T12:54:08;2.10;;;1.90;;
3083;SDS011;1552;51.952;7.618;2023-04-01T12:56:42;2.53;;;2.13;;
3083;SDS011;1552;51.952;7.618;2023-04-01T12:59:21;2.40;;;2.20;;
3083;SDS011;1552;51.952;7.618;2023-04-01T13:01:52;4.13;;;3.27;;
3083;SDS011;1552;51.952;7.618;2023-04-01T13:04:38;3.60;;;2.80;;
3083;SDS011;1552;51.952;7.618;2023-04-01T13:09:55;4.03;;;3.50;;
3083;SDS011;1552;51.952;7.618;2023-04-01T13:15:07;4.47;;;3.60;;
3083;SDS011;1552;51.952;7.618;2023-04-01T13:17:36;4.10;;;3.13;;
3083;SDS011;1552;51.952;7.618;2023-04-01T13:20:06;5.33;;;3.33;;
3083;SDS011;1552;51.952;7.618;2023-04-01T13:22:40;4.73;;;3.60;;
3083;SDS011;1552;51.952;7.618;2023-04-01T13:25:10;3.27;;;2.90;;
3083;SDS011;1552;51.952;7.618;2023-04-01T13:27:43;4.23;;;3.50;;
3083;SDS011;1552;51.952;7.618;2023-04-01T13:30:18;4.27;;;3.73;;
3083;SDS011;1552;51.952;7.618;2023-04-01T13:32:47;5.73;;;4.00;;
3083;SDS011;1552;51.952;7.618;2023-04-01T13:35:18;6.50;;;4.93;;
3083;SDS011;1552;51.952;7.618;2023-04-01T13:37:51;6.33;;;5.13;;
3083;SDS011;1552;51.952;7.618;2023-04-01T13:40:28;9.67;;;6.03;;
3083;SDS011;1552;51.952;7.618;2023-04-01T13:43:01;5.10;;;4.40;;
3083;SDS011;1552;51.952;7.618;2023-04-01T13:45:29;5.90;;;4.67;;
3083;SDS011;1552;51.952;7.618;2023-04-01T13:48:05;6.23;;;4.90;;
3083;SDS011;1552;51.952;7.618;2023-04-01T13:50:57;7.07;;;5.63;;
3083;SDS011;1552;51.952;7.618;2023-04-01T13:53:36;7.53;;;5.13;;
3083;SDS011;1552;51.952;7.618;2023-04-01T13:56:16;6.73;;;5.00;;
3083;SDS011;1552;51.952;7.618;2023-04-01T13:58:53;5.17;;;4.40;;
3083;SDS011;1552;51.952;7.618;2023-04-01T14:01:23;5.20;;;4.30;;
3083;SDS011;1552;51.952;7.618;2023-04-01T14:06:45;6.03;;;3.80;;
3083;SDS011;1552;51.952;7.618;2023-04-01T14:09:23;4.20;;;3.70;;
3083;SDS011;1552;51.952;7.618;2023-04-01T14:11:53;5.90;;;4.63;;
3083;SDS011;1552;51.952;7.618;2023-04-01T14:14:23;12.30;;;8.23;;
3083;SDS011;1552;51.952;7.618;2023-04-01T14:19:48;4.67;;;3.47;;
3083;SDS011;1552;51.952;7.618;2023-04-01T14:22:19;4.30;;;3.67;;
3083;SDS011;1552;51.952;7.618;2023-04-01T14:24:52;3.87;;;3.47;;
3083;SDS011;1552;51.952;7.618;2023-04-01T14:27:31;3.40;;;3.10;;
3083;SDS011;1552;51.952;7.618;2023-04-01T14:30:05;4.10;;;3.43;;
3083;SDS011;1552;51.952;7.618;2023-04-01T14:32:38;4.47;;;3.43;;
3083;SDS011;1552;51.952;7.618;2023-04-01T14:35:16;6.10;;;3.63;;
3083;SDS011;1552;51.952;7.618;2023-04-01T14:40:55;4.70;;;3.67;;
3083;SDS011;1552;51.952;7.618;2023-04-01T14:43:38;4.90;;;3.83;;
3083;SDS011;1552;51.952;7.618;2023-04-01T14:46:14;3.77;;;3.40;;
3083;SDS011;1552;51.952;7.618;2023-04-01T14:48:49;3.90;;;3.47;;
3083;SDS011;1552;51.952;7.618;2023-04-01T14:51:17;4.37;;;3.57;;
3083;SDS011;1552;51.952;7.618;2023-04-01T14:53:51;4.03;;;3.50;;
3083;SDS011;1552;51.952;7.618;2023-04-01T14:59:01;4.40;;;3.60;;
3083;SDS011;1552;51.952;7.618;2023-04-01T15:01:32;4.50;;;3.65;;
3083;SDS011;1552;51.952;7.618;2023-04-01T15:04:03;4.67;;;3.90;;
3083;SDS011;1552;51.952;7.618;2023-04-01T15:06:41;4.60;;;4.17;;
3083;SDS011;1552;51.952;7.618;2023-04-01T15:09:11;4.20;;;3.60;;
3083;SDS011;1552;51.952;7.618;2023-04-01T15:11:46;4.93;;;3.83;;
3083;SDS011;1552;51.952;7.618;2023-04-01T15:14:24;5.97;;;4.60;;
3083;SDS011;1552;51.952;7.618;2023-04-01T15:16:59;5.68;;;4.50;;
3083;SDS011;1552;51.952;7.618;2023-04-01T15:19:34;5.22;;;4.72;;
3083;SDS011;1552;51.952;7.618;2023-04-01T15:22:06;5.22;;;3.90;;
3083;SDS011;1552;51.952;7.618;2023-04-01T15:24:41;5.73;;;4.03;;
3083;SDS011;1552;51.952;7.618;2023-04-01T15:27:21;4.93;;;4.07;;
3083;SDS011;1552;51.952;7.618;2023-04-01T15:29:54;4.23;;;3.57;;
3083;SDS011;1552;51.952;7.618;2023-04-01T15:32:27;3.27;;;2.97;;
3083;SDS011;1552;51.952;7.618;2023-04-01T15:34:56;4.60;;;3.37;;
3083;SDS011;1552;51.952;7.618;2023-04-01T15:37:28;3.07;;;2.77;;
3083;SDS011;1552;51.952;7.618;2023-04-01T15:39:59;4.03;;;3.40;;
3083;SDS011;1552;51.952;7.618;2023-04-01T15:42:31;4.40;;;3.67;;
3083;SDS011;1552;51.952;7.618;2023-04-01T15:45:09;5.13;;;3.50;;
3083;SDS011;1552;51.952;7.618;2023-04-01T15:47:39;6.03;;;3.47;;
3083;SDS011;1552;51.952;7.618;2023-04-01T15:52:55;5.93;;;5.33;;
3083;SDS011;1552;51.952;7.618;2023-04-01T15:55:25;6.17;;;5.13;;
3083;SDS011;1552;51.952;7.618;2023-04-01T15:58:00;6.23;;;5.13;;
3083;SDS011;1552;51.952;7.618;2023-04-01T16:00:29;6.77;;;5.63;;
3083;SDS011;1552;51.952;7.618;2023-04-01T16:03:06;6.00;;;5.17;;
3083;SDS011;1552;51.952;7.618;2023-04-01T16:05:37;5.97;;;5.30;;
3083;SDS011;1552;51.952;7.618;2023-04-01T16:08:09;5.97;;;4.60;;
3083;SDS011;1552;51.952;7.618;2023-04-01T16:10:40;5.93;;;4.57;;
3083;SDS011;1552;51.952;7.618;2023-04-01T16:13:14;4.50;;;3.67;;
3083;SDS011;1552;51.952;7.618;2023-04-01T16:15:49;5.47;;;4.23;;
3083;SDS011;1552;51.952;7.618;2023-04-01T16:18:27;4.67;;;3.80;;
3083;SDS011;1552;51.952;7.618;2023-04-01T16:20:57;4.70;;;3.40;;
3083;SDS011;1552;51.952;7.618;2023-04-01T16:23:25;4.27;;;3.50;;
3083;SDS011;1552;51.952;7.618;2023-04-01T16:25:53;6.37;;;4.17;;
3083;SDS011;1552;51.952;7.618;2023-04-01T16:28:25;4.23;;;3.67;;
3083;SDS011;1552;51.952;7.618;2023-04-01T16:30:57;5.23;;;4.17;;
3083;SDS011;1552;51.952;7.618;2023-04-01T16:33:25;5.87;;;3.73;;
3083;SDS011;1552;51.952;7.618;2023-04-01T16:35:55;5.30;;;4.30;;
3083;SDS011;1552;51.952;7.618;2023-04-01T16:38:24;4.07;;;3.60;;
3083;SDS011;1552;51.952;7.618;2023-04-01T16:40:57;3.27;;;2.83;;
3083;SDS011;1552;51.952;7.618;2023-04-01T16:43:25;4.13;;;3.20;;